Time;durP1;ratioP1;P1;durP2;ratioP2;P2;SDS_P1;SDS_P2;PMS_P1;PMS_P2;Temp;Humidity;BMP_temperature;BMP_pressure;BME280_temperature;BME280_humidity;BME280_pressure;Samples;Min_cycle;Max_cycle;Signal;HPM_P1;HPM_P2
2022/04/06 00:00:11;;;;;;;22.48;3.50;;;9.60;99.90;;;;;;5054596;28;20017;-75
2022/04/06 00:02:39;;;;;;;19.75;2.22;;;9.60;99.90;;;;;;5054402;28;20029;-75
2022/04/06 00:05:08;;;;;;;19.20;3.10;;;9.70;99.90;;;;;;5037047;28;20032;-74
2022/04/06 00:07:33;;;;;;;12.32;2.80;;;9.70;99.90;;;;;;5055216;28;20017;-75
2022/04/06 00:09:59;;;;;;;20.75;3.33;;;9.60;99.90;;;;;;5054842;28;20037;-75
2022/04/06 00:12:25;;;;;;;18.88;3.97;;;9.60;99.90;;;;;;5037018;28;20381;-75
2022/04/06 00:14:51;;;;;;;24.23;3.70;;;9.60;99.90;;;;;;5036571;28;20025;-75
2022/04/06 00:17:16;;;;;;;19.67;3.03;;;9.60;99.90;;;;;;5058404;28;20410;-75
2022/04/06 00:19:42;;;;;;;22.65;3.17;;;9.60;99.90;;;;;;5059219;28;20017;-75
2022/04/06 00:22:08;;;;;;;13.60;2.30;;;9.60;99.90;;;;;;5058258;28;20493;-75
2022/04/06 00:24:33;;;;;;;17.98;3.92;;;9.50;99.90;;;;;;5059084;28;20500;-72
2022/04/06 00:26:59;;;;;;;12.50;2.83;;;10.10;99.90;;;;;;5059185;28;20068;-73
2022/04/06 00:29:25;;;;;;;19.58;3.65;;;9.60;99.90;;;;;;5059636;28;20017;-73
2022/04/06 00:31:50;;;;;;;22.10;4.22;;;9.60;99.90;;;;;;5040835;28;20033;-73
2022/04/06 00:34:16;;;;;;;16.85;3.72;;;9.60;99.90;;;;;;5058154;28;20071;-73
2022/04/06 00:36:41;;;;;;;22.83;3.97;;;9.60;99.90;;;;;;5040612;28;20017;-73
2022/04/06 00:39:07;;;;;;;19.15;3.25;;;9.60;99.90;;;;;;5058412;28;20040;-74
2022/04/06 00:41:33;;;;;;;24.85;4.93;;;9.60;99.90;;;;;;5041197;28;20033;-73
2022/04/06 00:44:18;;;;;;;22.70;3.47;;;9.60;99.90;;;;;;5040948;28;20033;-73
2022/04/06 00:46:45;;;;;;;22.10;5.38;;;9.60;99.90;;;;;;5057544;28;20033;-74
2022/04/06 00:49:14;;;;;;;17.65;3.75;;;9.60;99.90;;;;;;5039814;28;20125;-73
2022/04/06 00:51:42;;;;;;;11.43;2.65;;;9.60;99.90;;;;;;5057268;28;20517;-73
2022/04/06 00:54:09;;;;;;;17.30;3.85;;;9.60;99.90;;;;;;5039907;28;20381;-72
2022/04/06 00:56:35;;;;;;;14.75;3.22;;;9.70;99.90;;;;;;5057548;28;20021;-73
2022/04/06 00:59:02;;;;;;;19.95;3.92;;;9.60;99.90;;;;;;5039456;28;20200;-74
2022/04/06 01:01:27;;;;;;;14.70;3.00;;;9.60;99.90;;;;;;5057332;28;20029;-73
2022/04/06 01:03:53;;;;;;;11.05;3.00;;;9.60;99.90;;;;;;5057339;28;20025;-74
2022/04/06 01:06:20;;;;;;;19.63;3.75;;;9.70;99.90;;;;;;5058036;28;20035;-72
2022/04/06 01:08:46;;;;;;;19.15;4.63;;;9.60;99.90;;;;;;5058114;28;20017;-73
2022/04/06 01:11:12;;;;;;;13.45;3.80;;;9.70;99.90;;;;;;5057855;28;20017;-73
2022/04/06 01:13:38;;;;;;;19.05;5.13;;;9.70;99.90;;;;;;5057964;28;20021;-74
2022/04/06 01:16:04;;;;;;;15.93;3.13;;;9.70;99.90;;;;;;5057172;28;20021;-74
2022/04/06 01:18:33;;;;;;;15.82;3.53;;;9.70;99.90;;;;;;5039906;28;20573;-73
2022/04/06 01:20:59;;;;;;;12.43;2.83;;;9.70;99.90;;;;;;5057563;28;20032;-73
2022/04/06 01:23:25;;;;;;;15.50;3.25;;;9.70;99.90;;;;;;5056860;28;20028;-72
2022/04/06 01:25:51;;;;;;;11.48;2.83;;;9.70;99.90;;;;;;5056763;28;20466;-73
2022/04/06 01:28:16;;;;;;;13.52;3.47;;;9.70;99.90;;;;;;5038714;28;20021;-72
2022/04/06 01:30:42;;;;;;;16.40;3.10;;;9.70;99.90;;;;;;5056678;28;20079;-73
2022/04/06 01:33:08;;;;;;;15.23;3.20;;;9.70;99.90;;;;;;5057044;28;20520;-73
2022/04/06 01:35:38;;;;;;;17.00;2.35;;;9.70;99.90;;;;;;5058062;28;20026;-74
2022/04/06 01:38:04;;;;;;;21.02;2.80;;;9.70;99.90;;;;;;5057298;28;20075;-73
2022/04/06 01:40:30;;;;;;;9.27;1.60;;;9.70;99.90;;;;;;5057601;28;20036;-73
2022/04/06 01:42:56;;;;;;;17.73;3.35;;;9.70;99.90;;;;;;5057253;28;20025;-73
2022/04/06 01:45:22;;;;;;;23.02;3.95;;;9.70;99.90;;;;;;5056791;28;20056;-73
2022/04/06 01:47:47;;;;;;;13.40;2.28;;;9.70;99.90;;;;;;5056391;28;20032;-73
2022/04/06 01:52:57;;;;;;;17.77;3.22;;;9.60;99.90;;;;;;5057319;28;20029;-73
2022/04/06 01:55:23;;;;;;;11.27;1.50;;;9.70;99.90;;;;;;5039416;28;20028;-73
2022/04/06 01:57:49;;;;;;;11.75;1.60;;;9.70;99.90;;;;;;5039679;28;20024;-73
2022/04/06 02:00:18;;;;;;;7.82;1.15;;;9.70;99.90;;;;;;5057217;28;20488;-73
2022/04/06 02:02:46;;;;;;;;;;;9.60;99.90;;;;;;5039796;28;20025;-74
2022/04/06 02:05:12;;;;;;;16.20;1.83;;;9.60;99.90;;;;;;5055851;28;19950;-72
2022/04/06 02:07:38;;;;;;;9.32;1.30;;;9.60;99.90;;;;;;5056675;28;20036;-73
2022/04/06 02:10:04;;;;;;;19.70;2.67;;;9.60;99.90;;;;;;5056214;28;20466;-72
2022/04/06 02:12:32;;;;;;;10.23;1.92;;;9.60;99.90;;;;;;5056827;28;20029;-72
2022/04/06 02:14:58;;;;;;;15.18;2.75;;;9.50;99.90;;;;;;5038941;28;20024;-73
2022/04/06 02:17:29;;;;;;;13.82;1.73;;;9.60;99.90;;;;;;5056293;28;20112;-73
2022/04/06 02:19:55;;;;;;;14.82;1.45;;;9.60;99.90;;;;;;5057398;28;20033;-73
2022/04/06 02:22:21;;;;;;;16.25;2.38;;;9.60;99.90;;;;;;5039096;28;20048;-74
2022/04/06 02:24:47;;;;;;;14.38;1.50;;;9.60;99.90;;;;;;5056831;28;20026;-73
2022/04/06 02:27:12;;;;;;;5.57;0.95;;;9.60;99.90;;;;;;5057003;28;20032;-73
2022/04/06 02:29:40;;;;;;;13.65;1.10;;;9.60;99.90;;;;;;5056307;28;20488;-72
2022/04/06 02:32:07;;;;;;;12.27;1.15;;;9.60;99.90;;;;;;5056455;28;20013;-73
2022/04/06 02:34:33;;;;;;;8.65;1.02;;;9.60;99.90;;;;;;5056313;28;20025;-73
2022/04/06 02:36:59;;;;;;;14.77;1.67;;;9.60;99.90;;;;;;5037595;28;20367;-72
2022/04/06 02:39:24;;;;;;;14.52;1.25;;;9.50;99.90;;;;;;5036935;28;20079;-73
2022/04/06 02:41:50;;;;;;;9.02;1.33;;;9.50;99.90;;;;;;5055177;28;20444;-73
2022/04/06 02:44:16;;;;;;;13.25;1.35;;;9.50;99.90;;;;;;5056097;28;20398;-74
2022/04/06 02:46:44;;;;;;;6.07;0.47;;;9.50;99.90;;;;;;5042192;28;20382;-73
2022/04/06 02:49:09;;;;;;;11.57;1.25;;;9.50;99.90;;;;;;5056387;28;20032;-73
2022/04/06 02:51:35;;;;;;;9.65;0.55;;;9.50;99.90;;;;;;5038763;28;20021;-73
2022/04/06 02:54:01;;;;;;;11.68;0.25;;;9.50;99.90;;;;;;5056159;28;20013;-73
2022/04/06 02:56:27;;;;;;;12.45;1.73;;;9.40;99.90;;;;;;5056348;28;20028;-74
2022/04/06 02:58:54;;;;;;;8.55;1.08;;;9.40;99.90;;;;;;5056592;28;20024;-73
2022/04/06 03:01:20;;;;;;;4.30;0.30;;;9.40;99.90;;;;;;5057049;28;20033;-73
2022/04/06 03:03:46;;;;;;;3.40;0.95;;;9.40;99.90;;;;;;5038631;28;20108;-73
2022/04/06 03:06:11;;;;;;;6.03;0.95;;;9.30;99.90;;;;;;5038520;28;20118;-73
2022/04/06 03:08:37;;;;;;;5.10;0.40;;;9.40;99.90;;;;;;5038694;28;20029;-72
2022/04/06 03:11:05;;;;;;;6.63;0.38;;;9.40;99.90;;;;;;5055977;28;20112;-72
2022/04/06 03:13:31;;;;;;;7.53;0.40;;;9.30;99.90;;;;;;5056038;28;20444;-72
2022/04/06 03:15:56;;;;;;;5.57;0.38;;;9.30;99.90;;;;;;5055683;28;20029;-73
2022/04/06 03:18:22;;;;;;;4.43;0.45;;;9.20;99.90;;;;;;5055995;28;20538;-73
2022/04/06 03:20:48;;;;;;;12.15;0.57;;;9.20;99.90;;;;;;5055630;28;20103;-72
2022/04/06 03:23:15;;;;;;;4.15;0.20;;;9.20;99.90;;;;;;5055698;28;20065;-73
2022/04/06 03:25:41;;;;;;;10.63;1.45;;;9.20;99.90;;;;;;5055718;28;20021;-73
2022/04/06 03:28:07;;;;;;;4.10;0.00;;;9.20;99.90;;;;;;5038730;28;20092;-73
2022/04/06 03:30:33;;;;;;;7.53;0.95;;;9.20;99.90;;;;;;5056333;28;20021;-73
2022/04/06 03:32:58;;;;;;;4.20;0.90;;;9.10;99.90;;;;;;5056053;28;20025;-73
2022/04/06 03:35:24;;;;;;;7.93;0.20;;;9.10;99.90;;;;;;5037325;28;20025;-73
2022/04/06 03:37:51;;;;;;;6.15;0.20;;;9.00;99.90;;;;;;5054797;28;20063;-73
2022/04/06 03:40:16;;;;;;;1.60;0.05;;;9.00;99.90;;;;;;5054679;28;20103;-74
2022/04/06 03:42:42;;;;;;;5.28;0.50;;;9.00;99.90;;;;;;5056868;28;20053;-75
2022/04/06 03:45:08;;;;;;;7.35;0.40;;;9.00;99.90;;;;;;5055526;28;20044;-74
2022/04/06 03:47:35;;;;;;;6.22;0.63;;;9.00;99.90;;;;;;5056405;28;20508;-74
2022/04/06 03:50:02;;;;;;;5.35;0.15;;;9.00;99.90;;;;;;5056542;28;20028;-74
2022/04/06 03:52:28;;;;;;;10.80;0.65;;;9.00;99.90;;;;;;5056047;28;20382;-74
2022/04/06 03:54:54;;;;;;;2.50;0.20;;;9.00;99.90;;;;;;5056557;28;20010;-75
2022/04/06 03:57:19;;;;;;;3.15;0.22;;;8.90;99.90;;;;;;5057013;28;20033;-74
2022/04/06 03:59:45;;;;;;;13.35;0.20;;;8.90;99.90;;;;;;5039002;28;20043;-75
2022/04/06 04:02:11;;;;;;;5.20;0.30;;;8.90;99.90;;;;;;5038701;28;20029;-75
2022/04/06 04:04:37;;;;;;;2.63;0.10;;;8.90;99.90;;;;;;5038116;28;20552;-75
2022/04/06 04:07:02;;;;;;;3.40;0.20;;;8.80;99.90;;;;;;5038548;28;20033;-75
2022/04/06 04:09:29;;;;;;;3.47;0.13;;;8.80;99.90;;;;;;5038624;28;20025;-74
2022/04/06 04:11:56;;;;;;;7.35;0.20;;;8.80;99.90;;;;;;5038550;28;20108;-75
2022/04/06 04:14:23;;;;;;;14.45;0.30;;;8.80;99.90;;;;;;5056120;28;20029;-75
2022/04/06 04:16:48;;;;;;;7.28;0.52;;;8.80;99.90;;;;;;5057032;28;20096;-74
2022/04/06 04:19:15;;;;;;;5.47;0.10;;;8.80;99.90;;;;;;5055824;28;20445;-74
2022/04/06 04:21:41;;;;;;;6.53;0.70;;;8.90;99.90;;;;;;5055590;28;20076;-74
2022/04/06 04:24:10;;;;;;;5.78;0.10;;;9.00;99.90;;;;;;5056220;28;20025;-74
2022/04/06 04:26:37;;;;;;;;;;;8.90;99.90;;;;;;5039155;28;20028;-74
2022/04/06 04:29:03;;;;;;;6.95;0.00;;;8.90;99.90;;;;;;5037648;28;19905;-73
2022/04/06 04:31:29;;;;;;;7.18;0.30;;;8.90;99.90;;;;;;5056065;28;20469;-74
2022/04/06 04:33:56;;;;;;;6.10;0.10;;;8.90;99.90;;;;;;5056436;28;20050;-73
2022/04/06 04:36:21;;;;;;;5.68;0.60;;;8.80;99.90;;;;;;5038231;28;20017;-73
2022/04/06 04:38:48;;;;;;;6.05;0.45;;;8.90;99.90;;;;;;5054871;28;20021;-74
2022/04/06 04:41:13;;;;;;;15.63;0.20;;;8.90;99.90;;;;;;5054226;28;20033;-73
2022/04/06 04:43:39;;;;;;;9.18;0.47;;;8.90;99.90;;;;;;5054201;28;20029;-73
2022/04/06 04:46:05;;;;;;;6.95;0.30;;;9.00;99.90;;;;;;5054669;28;20032;-73
2022/04/06 04:48:31;;;;;;;5.20;0.30;;;8.90;99.90;;;;;;5054444;28;20032;-73
2022/04/06 04:51:00;;;;;;;5.55;0.20;;;8.90;99.90;;;;;;5036590;28;20025;-73
2022/04/06 04:53:26;;;;;;;9.98;0.75;;;8.90;99.90;;;;;;5036511;28;20545;-73
2022/04/06 04:55:53;;;;;;;5.47;0.22;;;8.90;99.90;;;;;;5054498;28;20017;-73
2022/04/06 04:58:19;;;;;;;7.93;0.25;;;8.90;99.90;;;;;;5054569;28;20025;-73
2022/04/06 05:00:46;;;;;;;5.82;0.40;;;8.90;99.90;;;;;;5054152;28;20057;-73
2022/04/06 05:03:12;;;;;;;5.72;0.75;;;8.90;99.90;;;;;;5040229;28;20466;-74
2022/04/06 05:05:40;;;;;;;8.15;0.22;;;8.80;99.90;;;;;;5058412;28;20090;-74
2022/04/06 05:08:06;;;;;;;7.30;0.65;;;8.80;99.90;;;;;;5057646;28;20022;-75
2022/04/06 05:10:32;;;;;;;6.63;0.32;;;8.80;99.90;;;;;;5057274;28;20028;-75
2022/04/06 05:12:57;;;;;;;6.90;0.22;;;8.80;99.90;;;;;;5038916;28;20496;-75
2022/04/06 05:15:23;;;;;;;5.43;0.15;;;8.80;99.90;;;;;;5038918;28;20029;-75
2022/04/06 05:17:48;;;;;;;5.72;0.70;;;8.90;99.90;;;;;;5039110;28;20078;-75
2022/04/06 05:20:14;;;;;;;7.05;0.98;;;8.90;99.90;;;;;;5056615;28;20063;-75
2022/04/06 05:22:40;;;;;;;3.33;0.43;;;8.90;99.90;;;;;;5038900;28;20033;-75
2022/04/06 05:25:07;;;;;;;3.35;0.45;;;8.90;99.90;;;;;;5056597;28;20478;-75
2022/04/06 05:27:54;;;;;;;7.78;0.30;;;9.00;99.90;;;;;;5039205;28;20025;-75
2022/04/06 05:30:23;;;;;;;3.80;0.70;;;8.90;99.90;;;;;;5056438;28;20068;-75
2022/04/06 05:32:50;;;;;;;4.18;0.00;;;9.00;99.90;;;;;;5057078;28;20040;-75
2022/04/06 05:35:16;;;;;;;4.03;0.52;;;9.00;99.90;;;;;;5038803;28;20483;-75
2022/04/06 05:37:42;;;;;;;8.23;0.10;;;9.00;99.90;;;;;;5056988;28;20025;-75
2022/04/06 05:40:09;;;;;;;4.57;0.40;;;9.00;99.90;;;;;;5038296;28;20025;-75
2022/04/06 05:42:35;;;;;;;4.03;1.00;;;9.10;99.90;;;;;;5038597;28;20090;-75
2022/04/06 05:45:02;;;;;;;5.63;0.50;;;9.10;99.90;;;;;;5056625;28;20024;-75
2022/04/06 05:47:28;;;;;;;2.92;0.28;;;9.10;99.90;;;;;;5056500;28;20044;-75
2022/04/06 05:49:57;;;;;;;7.75;0.55;;;9.20;99.90;;;;;;5056337;28;20021;-75
2022/04/06 05:52:22;;;;;;;2.97;0.25;;;8.90;99.90;;;;;;5055863;28;20021;-75
2022/04/06 05:54:48;;;;;;;6.18;0.47;;;9.20;99.90;;;;;;5038154;28;20597;-75
2022/04/06 05:57:14;;;;;;;7.00;0.45;;;9.30;99.90;;;;;;5056434;28;20478;-75
2022/04/06 05:59:42;;;;;;;9.95;1.50;;;9.30;99.90;;;;;;5056076;28;20029;-75
2022/04/06 06:02:08;;;;;;;10.60;1.08;;;9.30;99.90;;;;;;5055761;28;20478;-75
2022/04/06 06:04:33;;;;;;;7.38;1.02;;;9.30;99.90;;;;;;5056643;28;20029;-75
2022/04/06 06:07:00;;;;;;;9.75;0.55;;;9.30;99.90;;;;;;5039079;28;20486;-74
2022/04/06 06:09:25;;;;;;;8.38;0.82;;;9.30;99.90;;;;;;5056252;28;20025;-74
2022/04/06 06:11:51;;;;;;;11.45;1.77;;;9.30;99.90;;;;;;5056002;28;20438;-75
2022/04/06 06:14:17;;;;;;;8.88;1.25;;;9.30;99.90;;;;;;5055704;28;20063;-74
2022/04/06 06:16:44;;;;;;;10.27;0.82;;;9.30;99.90;;;;;;5038276;28;20032;-74
2022/04/06 06:19:11;;;;;;;7.93;1.05;;;9.30;99.90;;;;;;5056266;28;20010;-75
2022/04/06 06:21:36;;;;;;;5.45;1.33;;;9.30;99.90;;;;;;5056334;28;20455;-74
2022/04/06 06:24:05;;;;;;;6.50;0.57;;;9.30;99.90;;;;;;5056180;28;20064;-74
2022/04/06 06:26:31;;;;;;;16.27;1.27;;;9.30;99.90;;;;;;5037922;28;20031;-74
2022/04/06 06:28:57;;;;;;;21.20;1.15;;;9.40;99.90;;;;;;5056188;28;20151;-74
2022/04/06 06:31:23;;;;;;;8.35;0.40;;;9.40;99.90;;;;;;5055982;28;20481;-74
2022/04/06 06:33:48;;;;;;;5.35;0.15;;;9.40;99.90;;;;;;5056211;28;20017;-75
2022/04/06 06:36:14;;;;;;;4.25;0.30;;;9.40;99.90;;;;;;5055516;28;20021;-75
2022/04/06 06:38:40;;;;;;;6.20;0.55;;;9.40;99.90;;;;;;5055247;28;20021;-75
2022/04/06 06:41:08;;;;;;;4.15;0.43;;;9.40;99.90;;;;;;5055248;28;20029;-74
2022/04/06 06:43:34;;;;;;;7.05;0.45;;;9.40;99.90;;;;;;5038771;28;20074;-75
2022/04/06 06:45:59;;;;;;;5.95;0.55;;;9.50;99.90;;;;;;5055367;28;20514;-74
2022/04/06 06:48:25;;;;;;;4.50;0.22;;;9.50;99.90;;;;;;5055447;28;20029;-74
2022/04/06 06:50:50;;;;;;;5.55;0.17;;;9.50;99.90;;;;;;5055252;28;20017;-75
2022/04/06 06:53:16;;;;;;;21.75;1.27;;;9.60;99.90;;;;;;5055846;28;20104;-74
2022/04/06 06:55:42;;;;;;;8.10;0.93;;;9.60;99.90;;;;;;5055372;28;20092;-74
2022/04/06 06:58:07;;;;;;;1.88;0.20;;;9.80;99.90;;;;;;5037405;28;20028;-74
2022/04/06 07:00:33;;;;;;;3.67;0.40;;;9.70;99.90;;;;;;5055185;28;20025;-74
2022/04/06 07:02:58;;;;;;;5.95;0.22;;;9.80;99.90;;;;;;5055094;28;20082;-74
2022/04/06 07:05:24;;;;;;;4.93;0.03;;;9.90;99.90;;;;;;5055039;28;20029;-74
2022/04/06 07:07:59;;;;;;;2.88;0.47;;;9.90;99.90;;;;;;5037118;28;20105;-73
2022/04/06 07:10:25;;;;;;;11.63;1.23;;;10.00;99.90;;;;;;5055178;28;20025;-73
2022/04/06 07:12:52;;;;;;;8.13;0.08;;;10.00;99.90;;;;;;5054690;28;20386;-74
2022/04/06 07:15:18;;;;;;;8.35;0.65;;;10.00;99.90;;;;;;5055106;28;20435;-74
2022/04/06 07:17:44;;;;;;;7.03;0.20;;;10.00;99.90;;;;;;5054490;28;20384;-74
2022/04/06 07:20:13;;;;;;;4.45;0.20;;;10.10;99.90;;;;;;5037549;28;20021;-74
2022/04/06 07:22:39;;;;;;;3.33;0.00;;;10.10;99.90;;;;;;5036270;28;20036;-74
2022/04/06 07:25:04;;;;;;;1.75;0.10;;;10.20;99.90;;;;;;5054384;28;20021;-74
2022/04/06 07:27:34;;;;;;;7.80;0.10;;;10.20;99.90;;;;;;5054589;28;20052;-74
2022/04/06 07:30:00;;;;;;;2.38;0.38;;;10.10;99.90;;;;;;5054222;28;20551;-74
2022/04/06 07:32:25;;;;;;;5.35;0.10;;;10.00;99.90;;;;;;5054252;28;20021;-72
2022/04/06 07:34:51;;;;;;;5.45;0.25;;;9.90;99.90;;;;;;5035921;28;20024;-73
2022/04/06 07:37:16;;;;;;;3.65;0.43;;;9.90;99.90;;;;;;5054375;28;20052;-72
2022/04/06 07:39:42;;;;;;;6.22;0.00;;;9.90;99.90;;;;;;5054592;28;20017;-73
2022/04/06 07:42:07;;;;;;;8.73;0.77;;;10.00;99.90;;;;;;5054261;28;20105;-73
2022/04/06 07:44:33;;;;;;;4.28;0.10;;;10.00;99.90;;;;;;5054712;28;20052;-73
2022/04/06 07:47:00;;;;;;;5.65;0.25;;;9.90;99.90;;;;;;5036176;28;20108;-73
2022/04/06 07:49:26;;;;;;;7.63;0.10;;;9.80;99.90;;;;;;5054292;28;20443;-73
2022/04/06 07:51:52;;;;;;;4.75;0.63;;;9.70;99.90;;;;;;5036303;28;20047;-72
2022/04/06 07:54:17;;;;;;;3.45;0.10;;;9.60;99.90;;;;;;5053784;28;20017;-73
2022/04/06 07:56:43;;;;;;;11.77;2.05;;;9.50;99.90;;;;;;5054464;28;20032;-73
2022/04/06 07:59:08;;;;;;;6.20;1.48;;;9.40;99.90;;;;;;5054415;28;20045;-73
2022/04/06 08:01:34;;;;;;;4.18;0.55;;;9.40;99.90;;;;;;5053943;28;20112;-73
2022/04/06 08:04:00;;;;;;;5.82;0.77;;;9.30;99.90;;;;;;5053836;28;20036;-72
2022/04/06 08:06:25;;;;;;;3.90;0.25;;;9.30;99.90;;;;;;5035766;28;20068;-73
2022/04/06 08:08:53;;;;;;;4.80;0.28;;;9.30;99.90;;;;;;5053643;28;20105;-73
2022/04/06 08:11:20;;;;;;;5.57;1.25;;;9.30;99.90;;;;;;5053557;28;20021;-73
2022/04/06 08:13:46;;;;;;;3.17;0.32;;;9.20;99.90;;;;;;5035782;28;20021;-74
2022/04/06 08:16:12;;;;;;;3.00;0.32;;;9.20;99.90;;;;;;5054243;28;20028;-74
2022/04/06 08:18:37;;;;;;;8.18;0.38;;;9.20;99.90;;;;;;5053936;28;20021;-74
2022/04/06 08:21:05;;;;;;;4.28;0.82;;;9.20;99.90;;;;;;5053597;28;20029;-73
2022/04/06 08:23:31;;;;;;;5.60;0.28;;;9.30;99.90;;;;;;5035632;28;20021;-73
2022/04/06 08:25:58;;;;;;;6.78;0.70;;;9.20;99.90;;;;;;5054025;28;20029;-75
2022/04/06 08:28:24;;;;;;;5.68;0.75;;;9.20;99.90;;;;;;5053775;28;20083;-75
2022/04/06 08:30:50;;;;;;;5.03;0.65;;;9.20;99.90;;;;;;5053745;28;20029;-75
2022/04/06 08:33:16;;;;;;;5.53;0.50;;;9.20;99.90;;;;;;5036019;28;20025;-75
2022/04/06 08:35:42;;;;;;;7.78;0.22;;;9.20;99.90;;;;;;5036283;28;20063;-74
2022/04/06 08:38:12;;;;;;;7.63;0.38;;;9.20;99.90;;;;;;5056762;28;20028;-75
2022/04/06 08:40:39;;;;;;;9.95;0.70;;;9.20;99.90;;;;;;5058148;28;20029;-75
2022/04/06 08:43:06;;;;;;;11.32;1.05;;;9.20;99.90;;;;;;5057494;28;20490;-74
2022/04/06 08:45:39;;;;;;;14.98;3.55;;;9.20;99.90;;;;;;5039555;28;20158;-75
2022/04/06 08:48:10;;;;;;;7.60;0.50;;;9.20;99.90;;;;;;5057366;28;20029;-74
2022/04/06 08:50:37;;;;;;;12.35;0.50;;;9.20;99.90;;;;;;5039297;28;20032;-73
2022/04/06 08:53:04;;;;;;;2.00;0.30;;;9.20;99.90;;;;;;5039251;28;20021;-74
2022/04/06 08:55:33;;;;;;;8.48;0.35;;;9.10;99.90;;;;;;5056989;28;20029;-74
2022/04/06 08:57:59;;;;;;;;;;;9.20;99.90;;;;;;5057317;28;20098;-75
2022/04/06 09:00:26;;;;;;;5.13;0.40;;;9.20;99.90;;;;;;5056959;28;19905;-74
2022/04/06 09:02:52;;;;;;;3.13;0.68;;;9.20;99.90;;;;;;5056833;28;20029;-74
2022/04/06 09:05:21;;;;;;;4.40;1.05;;;9.20;99.90;;;;;;5039052;28;20501;-75
2022/04/06 09:07:51;;;;;;;6.53;1.27;;;9.20;99.90;;;;;;5056775;28;20017;-74
2022/04/06 09:10:31;;;;;;;11.30;0.60;;;9.20;99.90;;;;;;5056502;28;20033;-75
2022/04/06 09:13:20;;;;;;;10.57;1.75;;;9.30;99.90;;;;;;5057036;28;20355;-74
2022/04/06 09:15:50;;;;;;;12.98;1.27;;;9.30;99.90;;;;;;5056844;28;20017;-74
2022/04/06 09:18:15;;;;;;;7.45;1.23;;;9.20;99.90;;;;;;5056663;28;20027;-74
2022/04/06 09:20:41;;;;;;;4.82;0.63;;;9.20;99.90;;;;;;5056304;28;20108;-75
2022/04/06 09:23:07;;;;;;;7.90;1.20;;;9.20;99.90;;;;;;5056689;28;20036;-74
2022/04/06 09:25:38;;;;;;;8.88;1.95;;;9.20;99.90;;;;;;5038675;28;20107;-75
2022/04/06 09:28:08;;;;;;;10.95;1.88;;;9.20;99.90;;;;;;5038717;28;20115;-74
2022/04/06 09:30:37;;;;;;;6.85;0.75;;;9.20;99.90;;;;;;5056564;28;20028;-74
2022/04/06 09:33:03;;;;;;;8.13;1.83;;;9.20;99.90;;;;;;5038299;28;20025;-75
2022/04/06 09:35:31;;;;;;;7.68;2.35;;;9.20;99.90;;;;;;5056181;28;20035;-75
2022/04/06 09:38:22;;;;;;;5.55;1.38;;;9.20;99.90;;;;;;5038076;28;20029;-76
2022/04/06 09:40:49;;;;;;;5.82;1.35;;;9.10;99.90;;;;;;5038273;28;20044;-75
2022/04/06 09:43:26;;;;;;;8.60;1.27;;;9.10;99.90;;;;;;5038701;28;20037;-74
2022/04/06 09:48:56;;;;;;;6.65;1.80;;;9.10;99.90;;;;;;5056202;28;20071;-74
2022/04/06 09:51:23;;;;;;;11.60;1.48;;;9.10;99.90;;;;;;5055787;28;20029;-74
2022/04/06 09:53:50;;;;;;;11.65;2.08;;;9.20;99.90;;;;;;5038352;28;20096;-74
2022/04/06 09:56:17;;;;;;;9.85;2.28;;;9.20;99.90;;;;;;5056124;28;20544;-74
2022/04/06 09:58:45;;;;;;;11.77;1.63;;;9.20;99.90;;;;;;5056441;28;20021;-75
2022/04/06 10:01:12;;;;;;;9.82;2.40;;;9.20;99.90;;;;;;5056122;28;20029;-74
2022/04/06 10:03:40;;;;;;;11.45;1.65;;;9.30;99.90;;;;;;5056043;28;20553;-74
2022/04/06 10:06:06;;;;;;;11.75;3.25;;;9.30;99.90;;;;;;5055779;28;20397;-74
2022/04/06 10:08:32;;;;;;;18.27;3.10;;;9.30;99.90;;;;;;5055778;28;20031;-74
2022/04/06 10:10:59;;;;;;;9.05;1.98;;;9.40;99.90;;;;;;5055580;28;20021;-74
2022/04/06 10:13:27;;;;;;;10.30;1.92;;;9.40;99.90;;;;;;5055983;28;20078;-74
2022/04/06 10:15:54;;;;;;;6.28;2.25;;;9.50;99.90;;;;;;5038037;28;20017;-74
2022/04/06 10:18:19;;;;;;;12.90;2.33;;;9.50;99.90;;;;;;5037654;28;20525;-73
2022/04/06 10:20:50;;;;;;;7.20;2.22;;;9.60;99.90;;;;;;5037754;28;20025;-74
2022/04/06 10:23:16;;;;;;;6.50;1.60;;;9.60;99.90;;;;;;5056059;28;20363;-74
2022/04/06 10:25:44;;;;;;;11.73;3.55;;;9.70;99.90;;;;;;5055989;28;20032;-74
2022/04/06 10:28:11;;;;;;;8.18;2.65;;;9.80;99.90;;;;;;5056650;28;20118;-74
2022/04/06 10:30:38;;;;;;;4.80;1.20;;;10.00;99.90;;;;;;5037740;28;20367;-75
2022/04/06 10:33:19;;;;;;;10.10;2.90;;;10.30;99.90;;;;;;5037581;28;20386;-75
2022/04/06 10:35:45;;;;;;;8.15;2.10;;;12.30;99.90;;;;;;5057067;28;20021;-75
2022/04/06 10:38:16;;;;;;;8.27;1.55;;;10.70;99.90;;;;;;5056166;28;20520;-76
2022/04/06 10:40:45;;;;;;;5.13;1.73;;;10.90;99.90;;;;;;5055528;28;20025;-76
2022/04/06 10:43:40;;;;;;;7.60;2.00;;;10.80;99.90;;;;;;5056307;28;20501;-76
2022/04/06 10:46:10;;;;;;;9.63;2.38;;;10.80;99.90;;;;;;5055441;28;20043;-76
2022/04/06 10:48:58;;;;;;;13.98;2.90;;;10.90;99.90;;;;;;5055213;28;20078;-76
2022/04/06 10:51:33;;;;;;;10.10;1.60;;;10.80;99.90;;;;;;5054941;28;20025;-76
2022/04/06 10:54:20;;;;;;;16.23;2.10;;;10.80;99.90;;;;;;5054962;28;20079;-75
2022/04/06 10:56:54;;;;;;;8.10;1.63;;;10.80;99.90;;;;;;5023395;28;20533;-76
2022/04/06 10:59:21;;;;;;;10.00;1.95;;;10.80;99.90;;;;;;5037402;28;20032;-75
2022/04/06 11:01:48;;;;;;;11.50;2.78;;;10.80;99.90;;;;;;5054862;28;20082;-74
2022/04/06 11:04:19;;;;;;;9.40;1.42;;;10.80;99.90;;;;;;5055807;28;20094;-74
2022/04/06 11:06:59;;;;;;;7.65;1.55;;;10.80;99.90;;;;;;5055427;28;20154;-74
2022/04/06 11:12:20;;;;;;;8.00;2.25;;;10.70;99.90;;;;;;5056230;28;20072;-74
2022/04/06 11:14:48;;;;;;;11.00;1.80;;;10.60;99.90;;;;;;5055500;28;20021;-74
2022/04/06 11:17:34;;;;;;;8.02;2.50;;;10.50;99.90;;;;;;5055567;28;20021;-75
2022/04/06 11:20:09;;;;;;;6.57;1.10;;;10.50;99.90;;;;;;5055502;28;20021;-76
2022/04/06 11:22:38;;;;;;;6.72;1.90;;;10.40;99.90;;;;;;5055180;28;20039;-76
2022/04/06 11:25:07;;;;;;;7.90;1.75;;;10.40;99.90;;;;;;5055880;28;20028;-75
2022/04/06 11:27:34;;;;;;;10.10;2.17;;;10.40;99.90;;;;;;5054651;28;20017;-75
2022/04/06 11:30:08;;;;;;;7.38;1.60;;;10.40;99.90;;;;;;5054877;28;20021;-75
2022/04/06 11:32:34;;;;;;;8.88;1.75;;;10.40;99.90;;;;;;5055333;28;20021;-76
2022/04/06 11:35:05;;;;;;;9.13;2.03;;;10.50;99.90;;;;;;5037030;28;20021;-76
2022/04/06 11:37:32;;;;;;;6.95;1.10;;;10.50;99.90;;;;;;5036917;28;20025;-76
2022/04/06 11:39:59;;;;;;;7.03;2.53;;;10.60;99.90;;;;;;5037090;28;20021;-76
2022/04/06 11:42:25;;;;;;;15.25;1.95;;;10.70;99.90;;;;;;5054961;28;20017;-76
2022/04/06 11:44:52;;;;;;;5.45;1.63;;;10.80;99.90;;;;;;5036654;28;20028;-76
2022/04/06 11:47:34;;;;;;;3.67;1.48;;;11.70;99.90;;;;;;5055301;28;20013;-75
2022/04/06 11:50:02;;;;;;;3.83;1.08;;;10.80;99.90;;;;;;5054697;28;20017;-75
2022/04/06 11:52:27;;;;;;;10.05;2.08;;;10.80;99.90;;;;;;5054969;28;20533;-74
2022/04/06 11:54:57;;;;;;;2.50;0.88;;;10.80;99.90;;;;;;5055077;28;20053;-73
2022/04/06 11:57:37;;;;;;;6.05;0.70;;;10.80;99.90;;;;;;5055658;28;20494;-73
2022/04/06 12:00:05;;;;;;;10.38;0.43;;;10.70;99.90;;;;;;5037281;28;20458;-73
2022/04/06 12:02:50;;;;;;;4.97;1.20;;;10.70;99.90;;;;;;5054380;28;20371;-76
2022/04/06 12:05:16;;;;;;;2.95;0.68;;;10.60;99.90;;;;;;5054389;28;20013;-76
2022/04/06 12:07:42;;;;;;;10.45;1.95;;;10.50;99.90;;;;;;5036426;28;20112;-76
2022/04/06 12:10:07;;;;;;;5.43;1.38;;;10.50;99.90;;;;;;5054520;28;20546;-76
2022/04/06 12:12:37;;;;;;;4.80;1.52;;;10.50;99.90;;;;;;5037511;28;20021;-76
2022/04/06 12:15:04;;;;;;;6.85;1.63;;;10.50;99.90;;;;;;5040717;28;20405;-76
2022/04/06 12:17:31;;;;;;;12.02;1.90;;;10.50;99.90;;;;;;5058743;28;20017;-76
2022/04/06 12:19:57;;;;;;;5.22;1.88;;;10.50;99.90;;;;;;5059536;28;20044;-76
2022/04/06 12:22:26;;;;;;;2.80;0.88;;;10.40;99.90;;;;;;5058566;28;20033;-75
2022/04/06 12:24:53;;;;;;;4.47;1.05;;;10.50;99.90;;;;;;5059154;28;20017;-76
2022/04/06 12:27:29;;;;;;;4.28;1.27;;;10.60;99.90;;;;;;5040532;28;20509;-75
2022/04/06 12:30:09;;;;;;;8.57;1.88;;;10.60;99.90;;;;;;5058594;28;20032;-76
2022/04/06 12:32:45;;;;;;;2.50;0.98;;;10.70;99.90;;;;;;5040741;28;20025;-75
2022/04/06 12:35:24;;;;;;;2.92;1.10;;;10.70;99.90;;;;;;5058442;28;20044;-75
2022/04/06 12:37:50;;;;;;;4.75;0.75;;;10.60;99.90;;;;;;5058780;28;20021;-75
2022/04/06 12:40:23;;;;;;;8.13;1.10;;;10.60;99.90;;;;;;5058751;28;20025;-75
2022/04/06 12:42:53;;;;;;;5.03;1.23;;;10.60;99.90;;;;;;5057982;28;20033;-75
2022/04/06 12:45:18;;;;;;;4.15;1.15;;;10.50;99.90;;;;;;5057865;28;20029;-75
2022/04/06 12:47:45;;;;;;;7.20;1.27;;;10.60;99.90;;;;;;5040047;28;20052;-75
2022/04/06 12:50:21;;;;;;;5.25;2.00;;;10.60;99.90;;;;;;5057374;28;20537;-75
2022/04/06 12:53:10;;;;;;;3.42;0.70;;;10.60;99.90;;;;;;5039576;28;20029;-76
2022/04/06 12:55:36;;;;;;;3.30;1.00;;;10.60;99.90;;;;;;5058208;28;20016;-75
2022/04/06 12:58:16;;;;;;;5.30;1.00;;;10.60;99.90;;;;;;5057183;28;20466;-75
2022/04/06 13:00:42;;;;;;;5.30;0.68;;;10.60;99.90;;;;;;5039604;28;20017;-74
2022/04/06 13:03:08;;;;;;;3.13;0.38;;;10.50;99.90;;;;;;5040718;28;20088;-74